sensor_id;sensor_type;location;lat;lon;timestamp;pressure;altitude;pressure_sealevel;temperature;humidity
44127;BME280;29786;50.798;7.302;2022-12-18T00:00:11;100400;;;-5.61;100
44127;BME280;29786;50.798;7.302;2022-12-18T00:01:16;100400;;;-5.62;100
44127;BME280;29786;50.798;7.302;2022-12-18T00:02:11;100400;;;-5.71;100
44127;BME280;29786;50.798;7.302;2022-12-18T00:03:11;100400;;;-5.67;100
44127;BME280;29786;50.798;7.302;2022-12-18T00:04:16;100400;;;-5.64;100
44127;BME280;29786;50.798;7.302;2022-12-18T00:05:11;100400;;;-5.72;100
44127;BME280;29786;50.798;7.302;2022-12-18T00:06:11;100400;;;-5.7;100
44127;BME280;29786;50.798;7.302;2022-12-18T00:07:11;100390;;;-5.71;100
44127;BME280;29786;50.798;7.302;2022-12-18T00:08:11;100390;;;-5.75;100
44127;BME280;29786;50.798;7.302;2022-12-18T00:09:11;100390;;;-5.75;100
44127;BME280;29786;50.798;7.302;2022-12-18T00:10:10;100390;;;-5.78;100
44127;BME280;29786;50.798;7.302;2022-12-18T00:11:11;100390;;;-5.81;100
44127;BME280;29786;50.798;7.302;2022-12-18T00:12:12;100390;;;-5.78;100
44127;BME280;29786;50.798;7.302;2022-12-18T00:13:12;100390;;;-5.83;100
44127;BME280;29786;50.798;7.302;2022-12-18T00:14:11;100390;;;-5.78;100
44127;BME280;29786;50.798;7.302;2022-12-18T00:15:11;100390;;;-5.71;100
44127;BME280;29786;50.798;7.302;2022-12-18T00:16:13;100390;;;-5.7;100
44127;BME280;29786;50.798;7.302;2022-12-18T00:17:11;100390;;;-5.74;100
44127;BME280;29786;50.798;7.302;2022-12-18T00:18:11;100390;;;-5.76;100
44127;BME280;29786;50.798;7.302;2022-12-18T00:19:11;100390;;;-5.79;100
44127;BME280;29786;50.798;7.302;2022-12-18T00:20:13;100390;;;-5.92;100
44127;BME280;29786;50.798;7.302;2022-12-18T00:21:12;100390;;;-5.9;100
44127;BME280;29786;50.798;7.302;2022-12-18T00:22:11;100390;;;-6.02;100
44127;BME280;29786;50.798;7.302;2022-12-18T00:23:11;100380;;;-6.02;100
44127;BME280;29786;50.798;7.302;2022-12-18T00:24:11;100390;;;-6.06;100
44127;BME280;29786;50.798;7.302;2022-12-18T00:25:11;100380;;;-5.99;100
44127;BME280;29786;50.798;7.302;2022-12-18T00:26:12;100380;;;-6.07;100
44127;BME280;29786;50.798;7.302;2022-12-18T00:27:10;100380;;;-5.97;100
44127;BME280;29786;50.798;7.302;2022-12-18T00:28:11;100380;;;-5.91;100
44127;BME280;29786;50.798;7.302;2022-12-18T00:29:11;100380;;;-5.91;100
44127;BME280;29786;50.798;7.302;2022-12-18T00:30:11;100390;;;-6.01;100
44127;BME280;29786;50.798;7.302;2022-12-18T00:31:12;100390;;;-6;100
44127;BME280;29786;50.798;7.302;2022-12-18T00:32:11;100390;;;-6.03;100
44127;BME280;29786;50.798;7.302;2022-12-18T00:33:12;100390;;;-6.05;100
44127;BME280;29786;50.798;7.302;2022-12-18T00:34:12;100390;;;-5.99;100
44127;BME280;29786;50.798;7.302;2022-12-18T00:35:11;100400;;;-5.95;100
44127;BME280;29786;50.798;7.302;2022-12-18T00:36:13;100400;;;-5.93;100
44127;BME280;29786;50.798;7.302;2022-12-18T00:37:11;100400;;;-5.97;100
44127;BME280;29786;50.798;7.302;2022-12-18T00:38:10;100400;;;-6.02;100
44127;BME280;29786;50.798;7.302;2022-12-18T00:39:11;100400;;;-5.97;100
44127;BME280;29786;50.798;7.302;2022-12-18T00:40:11;100400;;;-5.96;100
44127;BME280;29786;50.798;7.302;2022-12-18T00:41:12;100400;;;-5.94;100
44127;BME280;29786;50.798;7.302;2022-12-18T00:42:11;100400;;;-6.04;100
44127;BME280;29786;50.798;7.302;2022-12-18T00:43:11;100400;;;-6.07;100
44127;BME280;29786;50.798;7.302;2022-12-18T00:44:12;100400;;;-6;100
44127;BME280;29786;50.798;7.302;2022-12-18T00:45:11;100400;;;-5.98;100
44127;BME280;29786;50.798;7.302;2022-12-18T00:46:11;100390;;;-5.98;100
44127;BME280;29786;50.798;7.302;2022-12-18T00:47:11;100390;;;-5.96;100
44127;BME280;29786;50.798;7.302;2022-12-18T00:48:11;100400;;;-5.88;100
44127;BME280;29786;50.798;7.302;2022-12-18T00:49:11;100400;;;-5.87;100
44127;BME280;29786;50.798;7.302;2022-12-18T00:50:11;100390;;;-5.85;100
44127;BME280;29786;50.798;7.302;2022-12-18T00:51:11;100390;;;-5.83;100
44127;BME280;29786;50.798;7.302;2022-12-18T00:52:11;100390;;;-5.78;100
44127;BME280;29786;50.798;7.302;2022-12-18T00:53:11;100390;;;-5.77;100
44127;BME280;29786;50.798;7.302;2022-12-18T00:54:12;100390;;;-5.84;100
44127;BME280;29786;50.798;7.302;2022-12-18T00:55:12;100390;;;-5.88;100
44127;BME280;29786;50.798;7.302;2022-12-18T00:56:11;100400;;;-5.91;100
44127;BME280;29786;50.798;7.302;2022-12-18T00:57:11;100400;;;-5.9;100
44127;BME280;29786;50.798;7.302;2022-12-18T00:58:12;100400;;;-5.93;100
44127;BME280;29786;50.798;7.302;2022-12-18T00:59:11;100390;;;-5.91;100
44127;BME280;29786;50.798;7.302;2022-12-18T01:00:12;100390;;;-5.92;100
44127;BME280;29786;50.798;7.302;2022-12-18T01:01:10;100390;;;-5.86;100
44127;BME280;29786;50.798;7.302;2022-12-18T01:02:10;100390;;;-5.86;100
44127;BME280;29786;50.798;7.302;2022-12-18T01:03:12;100380;;;-5.84;100
44127;BME280;29786;50.798;7.302;2022-12-18T01:04:11;100380;;;-5.83;100
44127;BME280;29786;50.798;7.302;2022-12-18T01:05:12;100390;;;-5.82;100
44127;BME280;29786;50.798;7.302;2022-12-18T01:06:11;100380;;;-5.91;100
44127;BME280;29786;50.798;7.302;2022-12-18T01:07:11;100380;;;-5.88;100
44127;BME280;29786;50.798;7.302;2022-12-18T01:08:11;100380;;;-5.84;100
44127;BME280;29786;50.798;7.302;2022-12-18T01:09:11;100380;;;-5.8;100
44127;BME280;29786;50.798;7.302;2022-12-18T01:10:11;100380;;;-5.82;100
44127;BME280;29786;50.798;7.302;2022-12-18T01:11:12;100370;;;-5.89;100
44127;BME280;29786;50.798;7.302;2022-12-18T01:12:11;100370;;;-5.94;100
44127;BME280;29786;50.798;7.302;2022-12-18T01:13:11;100370;;;-5.98;100
44127;BME280;29786;50.798;7.302;2022-12-18T01:14:11;100380;;;-5.99;100
44127;BME280;29786;50.798;7.302;2022-12-18T01:15:12;100370;;;-6.01;100
44127;BME280;29786;50.798;7.302;2022-12-18T01:16:12;100380;;;-5.92;100
44127;BME280;29786;50.798;7.302;2022-12-18T01:17:11;100380;;;-5.96;100
44127;BME280;29786;50.798;7.302;2022-12-18T01:18:11;100380;;;-6;100
44127;BME280;29786;50.798;7.302;2022-12-18T01:19:10;100380;;;-5.95;100
44127;BME280;29786;50.798;7.302;2022-12-18T01:20:11;100380;;;-5.92;100
44127;BME280;29786;50.798;7.302;2022-12-18T01:21:12;100380;;;-5.95;100
44127;BME280;29786;50.798;7.302;2022-12-18T01:22:11;100380;;;-5.94;100
44127;BME280;29786;50.798;7.302;2022-12-18T01:23:10;100380;;;-5.89;100
44127;BME280;29786;50.798;7.302;2022-12-18T01:24:11;100380;;;-5.99;100
44127;BME280;29786;50.798;7.302;2022-12-18T01:25:11;100380;;;-5.94;100
44127;BME280;29786;50.798;7.302;2022-12-18T01:26:12;100390;;;-5.99;100
44127;BME280;29786;50.798;7.302;2022-12-18T01:27:10;100380;;;-5.98;100
44127;BME280;29786;50.798;7.302;2022-12-18T01:28:10;100390;;;-5.98;100
44127;BME280;29786;50.798;7.302;2022-12-18T01:29:11;100390;;;-5.94;100
44127;BME280;29786;50.798;7.302;2022-12-18T01:30:11;100380;;;-5.97;100
44127;BME280;29786;50.798;7.302;2022-12-18T01:31:13;100380;;;-5.98;100
44127;BME280;29786;50.798;7.302;2022-12-18T01:32:11;100380;;;-5.93;100
44127;BME280;29786;50.798;7.302;2022-12-18T01:33:11;100380;;;-5.94;100
44127;BME280;29786;50.798;7.302;2022-12-18T01:34:11;100380;;;-5.91;100
44127;BME280;29786;50.798;7.302;2022-12-18T01:35:11;100380;;;-5.87;100
44127;BME280;29786;50.798;7.302;2022-12-18T01:36:15;100380;;;-5.85;100
44127;BME280;29786;50.798;7.302;2022-12-18T01:37:11;100380;;;-5.85;100
44127;BME280;29786;50.798;7.302;2022-12-18T01:38:12;100380;;;-5.88;100
44127;BME280;29786;50.798;7.302;2022-12-18T01:39:12;100380;;;-5.91;100
44127;BME280;29786;50.798;7.302;2022-12-18T01:40:11;100380;;;-5.98;100
44127;BME280;29786;50.798;7.302;2022-12-18T01:41:12;100380;;;-5.97;100
44127;BME280;29786;50.798;7.302;2022-12-18T01:42:13;100390;;;-6.05;100
44127;BME280;29786;50.798;7.302;2022-12-18T01:43:11;100380;;;-6.11;100
44127;BME280;29786;50.798;7.302;2022-12-18T01:45:22;100390;;;-5.94;100
44127;BME280;29786;50.798;7.302;2022-12-18T01:45:26;100380;;;-6.01;100
44127;BME280;29786;50.798;7.302;2022-12-18T01:46:12;100380;;;-5.92;100
44127;BME280;29786;50.798;7.302;2022-12-18T01:47:29;100380;;;-6;100
44127;BME280;29786;50.798;7.302;2022-12-18T01:48:12;100380;;;-5.98;100
44127;BME280;29786;50.798;7.302;2022-12-18T01:49:11;100380;;;-6.1;100
44127;BME280;29786;50.798;7.302;2022-12-18T01:50:22;100380;;;-6.06;100
44127;BME280;29786;50.798;7.302;2022-12-18T01:51:11;100380;;;-6.05;100
44127;BME280;29786;50.798;7.302;2022-12-18T01:52:13;100380;;;-6.01;100
44127;BME280;29786;50.798;7.302;2022-12-18T01:53:15;100370;;;-6.06;100
44127;BME280;29786;50.798;7.302;2022-12-18T01:54:11;100370;;;-6.11;100
44127;BME280;29786;50.798;7.302;2022-12-18T01:55:11;100380;;;-6.1;100
44127;BME280;29786;50.798;7.302;2022-12-18T01:56:12;100370;;;-6.02;100
44127;BME280;29786;50.798;7.302;2022-12-18T01:57:11;100380;;;-5.98;100
44127;BME280;29786;50.798;7.302;2022-12-18T01:58:11;100380;;;-6.02;100
44127;BME280;29786;50.798;7.302;2022-12-18T01:59:11;100380;;;-5.94;100
44127;BME280;29786;50.798;7.302;2022-12-18T02:00:14;100380;;;-5.98;100
44127;BME280;29786;50.798;7.302;2022-12-18T02:01:11;100380;;;-6;100
44127;BME280;29786;50.798;7.302;2022-12-18T02:02:11;100380;;;-6.02;100
44127;BME280;29786;50.798;7.302;2022-12-18T02:03:10;100380;;;-6.05;100
44127;BME280;29786;50.798;7.302;2022-12-18T02:04:24;100370;;;-6.02;100
44127;BME280;29786;50.798;7.302;2022-12-18T02:05:11;100370;;;-6.01;100
44127;BME280;29786;50.798;7.302;2022-12-18T02:06:27;100370;;;-6.01;100
44127;BME280;29786;50.798;7.302;2022-12-18T02:07:37;100370;;;-6.03;100
44127;BME280;29786;50.798;7.302;2022-12-18T02:08:16;100370;;;-6.04;100
44127;BME280;29786;50.798;7.302;2022-12-18T02:09:15;100360;;;-6.04;100
44127;BME280;29786;50.798;7.302;2022-12-18T02:10:16;100370;;;-6.05;100
44127;BME280;29786;50.798;7.302;2022-12-18T02:11:23;100370;;;-6.09;100
44127;BME280;29786;50.798;7.302;2022-12-18T02:12:13;100380;;;-6.1;100
44127;BME280;29786;50.798;7.302;2022-12-18T02:13:30;100370;;;-6.1;100
44127;BME280;29786;50.798;7.302;2022-12-18T02:15:13;100370;;;-6.04;100
44127;BME280;29786;50.798;7.302;2022-12-18T02:15:17;100370;;;-6.12;100
44127;BME280;29786;50.798;7.302;2022-12-18T02:16:21;100370;;;-6.03;100
44127;BME280;29786;50.798;7.302;2022-12-18T02:17:14;100380;;;-5.99;100
44127;BME280;29786;50.798;7.302;2022-12-18T02:18:12;100380;;;-6.08;100
44127;BME280;29786;50.798;7.302;2022-12-18T02:19:21;100380;;;-6.11;100
44127;BME280;29786;50.798;7.302;2022-12-18T02:20:14;100380;;;-6.1;100
44127;BME280;29786;50.798;7.302;2022-12-18T02:21:18;100380;;;-6.07;100
44127;BME280;29786;50.798;7.302;2022-12-18T02:22:46;100380;;;-6.11;100
44127;BME280;29786;50.798;7.302;2022-12-18T02:23:48;100380;;;-6.06;100
44127;BME280;29786;50.798;7.302;2022-12-18T02:24:17;100380;;;-6.04;100
44127;BME280;29786;50.798;7.302;2022-12-18T02:25:13;100380;;;-6.06;100
44127;BME280;29786;50.798;7.302;2022-12-18T02:26:45;100390;;;-6.01;100
44127;BME280;29786;50.798;7.302;2022-12-18T02:27:10;100380;;;-5.98;100
44127;BME280;29786;50.798;7.302;2022-12-18T02:28:11;100380;;;-5.94;100
44127;BME280;29786;50.798;7.302;2022-12-18T02:29:13;100380;;;-6.02;100
44127;BME280;29786;50.798;7.302;2022-12-18T02:30:11;100380;;;-6;100
44127;BME280;29786;50.798;7.302;2022-12-18T02:31:13;100390;;;-5.99;100
44127;BME280;29786;50.798;7.302;2022-12-18T02:32:13;100390;;;-6.02;100
44127;BME280;29786;50.798;7.302;2022-12-18T02:33:12;100380;;;-6.04;100
44127;BME280;29786;50.798;7.302;2022-12-18T02:34:11;100380;;;-6.03;100
44127;BME280;29786;50.798;7.302;2022-12-18T02:35:13;100390;;;-6.03;100
44127;BME280;29786;50.798;7.302;2022-12-18T02:36:11;100380;;;-6.04;100
44127;BME280;29786;50.798;7.302;2022-12-18T02:37:12;100380;;;-6.05;100
44127;BME280;29786;50.798;7.302;2022-12-18T02:38:11;100380;;;-6.03;100
44127;BME280;29786;50.798;7.302;2022-12-18T02:39:12;100390;;;-6.11;100
44127;BME280;29786;50.798;7.302;2022-12-18T02:40:11;100390;;;-6.2;100
44127;BME280;29786;50.798;7.302;2022-12-18T02:41:11;100390;;;-6.15;100
44127;BME280;29786;50.798;7.302;2022-12-18T02:42:12;100400;;;-6.07;100
44127;BME280;29786;50.798;7.302;2022-12-18T02:43:12;100390;;;-6.05;100
44127;BME280;29786;50.798;7.302;2022-12-18T02:44:11;100400;;;-6.09;100
44127;BME280;29786;50.798;7.302;2022-12-18T02:45:11;100390;;;-6.08;100
44127;BME280;29786;50.798;7.302;2022-12-18T02:46:23;100390;;;-6.06;100
44127;BME280;29786;50.798;7.302;2022-12-18T02:47:11;100380;;;-6.04;100
44127;BME280;29786;50.798;7.302;2022-12-18T02:48:12;100380;;;-6;100
44127;BME280;29786;50.798;7.302;2022-12-18T02:49:16;100380;;;-5.97;100
44127;BME280;29786;50.798;7.302;2022-12-18T02:51:16;100370;;;-5.92;100
44127;BME280;29786;50.798;7.302;2022-12-18T02:51:18;100370;;;-5.95;100
44127;BME280;29786;50.798;7.302;2022-12-18T02:52:15;100380;;;-5.9;100
44127;BME280;29786;50.798;7.302;2022-12-18T02:53:21;100370;;;-5.95;100
44127;BME280;29786;50.798;7.302;2022-12-18T02:55:33;100370;;;-5.99;100
44127;BME280;29786;50.798;7.302;2022-12-18T02:56:13;100380;;;-6;100
44127;BME280;29786;50.798;7.302;2022-12-18T02:57:14;100380;;;-5.99;100
44127;BME280;29786;50.798;7.302;2022-12-18T02:58:16;100380;;;-6.02;100
44127;BME280;29786;50.798;7.302;2022-12-18T02:59:13;100380;;;-6.08;100
44127;BME280;29786;50.798;7.302;2022-12-18T03:00:12;100370;;;-6.11;100
44127;BME280;29786;50.798;7.302;2022-12-18T03:01:21;100380;;;-6.13;100
44127;BME280;29786;50.798;7.302;2022-12-18T03:02:17;100370;;;-6.18;100
44127;BME280;29786;50.798;7.302;2022-12-18T03:03:22;100370;;;-6.12;100
44127;BME280;29786;50.798;7.302;2022-12-18T03:04:13;100370;;;-6.14;100
44127;BME280;29786;50.798;7.302;2022-12-18T03:05:45;100370;;;-6.14;100
44127;BME280;29786;50.798;7.302;2022-12-18T03:06:12;100370;;;-6.18;100
44127;BME280;29786;50.798;7.302;2022-12-18T03:07:15;100370;;;-6.18;100
44127;BME280;29786;50.798;7.302;2022-12-18T03:08:13;100370;;;-6.22;100
44127;BME280;29786;50.798;7.302;2022-12-18T03:09:13;100370;;;-6.14;100
44127;BME280;29786;50.798;7.302;2022-12-18T03:10:12;100370;;;-6.17;100
44127;BME280;29786;50.798;7.302;2022-12-18T03:11:12;100370;;;-6.24;100
44127;BME280;29786;50.798;7.302;2022-12-18T03:12:15;100370;;;-6.24;100
44127;BME280;29786;50.798;7.302;2022-12-18T03:13:13;100370;;;-6.2;100
44127;BME280;29786;50.798;7.302;2022-12-18T03:14:12;100370;;;-6.16;100
44127;BME280;29786;50.798;7.302;2022-12-18T03:15:13;100370;;;-6.18;100
44127;BME280;29786;50.798;7.302;2022-12-18T03:16:12;100370;;;-6.23;100
44127;BME280;29786;50.798;7.302;2022-12-18T03:17:13;100370;;;-6.26;100
44127;BME280;29786;50.798;7.302;2022-12-18T03:18:16;100370;;;-6.33;100
44127;BME280;29786;50.798;7.302;2022-12-18T03:19:12;100370;;;-6.34;100
44127;BME280;29786;50.798;7.302;2022-12-18T03:20:13;100380;;;-6.42;100
44127;BME280;29786;50.798;7.302;2022-12-18T03:21:10;100370;;;-6.46;100
44127;BME280;29786;50.798;7.302;2022-12-18T03:22:10;100370;;;-6.42;100
44127;BME280;29786;50.798;7.302;2022-12-18T03:23:13;100360;;;-6.44;100
44127;BME280;29786;50.798;7.302;2022-12-18T03:24:11;100370;;;-6.49;100
44127;BME280;29786;50.798;7.302;2022-12-18T03:25:13;100370;;;-6.47;100
44127;BME280;29786;50.798;7.302;2022-12-18T03:26:12;100370;;;-6.62;100
44127;BME280;29786;50.798;7.302;2022-12-18T03:27:12;100370;;;-6.55;100
44127;BME280;29786;50.798;7.302;2022-12-18T03:28:12;100360;;;-6.5;100
44127;BME280;29786;50.798;7.302;2022-12-18T03:29:12;100370;;;-6.57;100
44127;BME280;29786;50.798;7.302;2022-12-18T03:30:12;100360;;;-6.58;100
44127;BME280;29786;50.798;7.302;2022-12-18T03:31:12;100360;;;-6.57;100
44127;BME280;29786;50.798;7.302;2022-12-18T03:32:15;100350;;;-6.69;100
44127;BME280;29786;50.798;7.302;2022-12-18T03:33:13;100360;;;-6.67;100
44127;BME280;29786;50.798;7.302;2022-12-18T03:34:13;100360;;;-6.73;100
44127;BME280;29786;50.798;7.302;2022-12-18T03:35:11;100360;;;-6.72;100
44127;BME280;29786;50.798;7.302;2022-12-18T03:36:10;100350;;;-6.76;100
44127;BME280;29786;50.798;7.302;2022-12-18T03:37:12;100350;;;-6.75;100
44127;BME280;29786;50.798;7.302;2022-12-18T03:38:11;100350;;;-6.76;100
44127;BME280;29786;50.798;7.302;2022-12-18T03:39:11;100350;;;-6.73;100
44127;BME280;29786;50.798;7.302;2022-12-18T03:40:13;100350;;;-6.73;100
44127;BME280;29786;50.798;7.302;2022-12-18T03:41:29;100350;;;-6.7;100
44127;BME280;29786;50.798;7.302;2022-12-18T03:42:14;100350;;;-6.68;100
44127;BME280;29786;50.798;7.302;2022-12-18T03:43:14;100350;;;-6.69;100
44127;BME280;29786;50.798;7.302;2022-12-18T03:44:12;100350;;;-6.68;100
44127;BME280;29786;50.798;7.302;2022-12-18T03:45:28;100350;;;-6.62;100
44127;BME280;29786;50.798;7.302;2022-12-18T03:46:15;100340;;;-6.65;100
44127;BME280;29786;50.798;7.302;2022-12-18T03:47:15;100350;;;-6.63;100
44127;BME280;29786;50.798;7.302;2022-12-18T03:48:15;100350;;;-6.6;100
44127;BME280;29786;50.798;7.302;2022-12-18T03:49:13;100340;;;-6.62;100
44127;BME280;29786;50.798;7.302;2022-12-18T03:50:15;100340;;;-6.63;100
44127;BME280;29786;50.798;7.302;2022-12-18T03:51:14;100340;;;-6.64;100
44127;BME280;29786;50.798;7.302;2022-12-18T03:52:29;100340;;;-6.65;100
44127;BME280;29786;50.798;7.302;2022-12-18T03:53:17;100340;;;-6.65;100
44127;BME280;29786;50.798;7.302;2022-12-18T03:54:11;100340;;;-6.68;100
44127;BME280;29786;50.798;7.302;2022-12-18T03:55:11;100350;;;-6.65;100
44127;BME280;29786;50.798;7.302;2022-12-18T03:56:10;100340;;;-6.69;100
44127;BME280;29786;50.798;7.302;2022-12-18T03:57:13;100340;;;-6.73;100
44127;BME280;29786;50.798;7.302;2022-12-18T03:58:11;100340;;;-6.64;100
44127;BME280;29786;50.798;7.302;2022-12-18T03:59:12;100330;;;-6.62;100
44127;BME280;29786;50.798;7.302;2022-12-18T04:01:11;100330;;;-6.66;100
44127;BME280;29786;50.798;7.302;2022-12-18T04:02:11;100330;;;-6.65;100
44127;BME280;29786;50.798;7.302;2022-12-18T04:03:11;100320;;;-6.63;100
44127;BME280;29786;50.798;7.302;2022-12-18T04:04:11;100320;;;-6.64;100
44127;BME280;29786;50.798;7.302;2022-12-18T04:05:11;100320;;;-6.66;100
44127;BME280;29786;50.798;7.302;2022-12-18T04:06:11;100320;;;-6.64;100
44127;BME280;29786;50.798;7.302;2022-12-18T04:07:11;100330;;;-6.68;100
44127;BME280;29786;50.798;7.302;2022-12-18T04:08:12;100320;;;-6.65;100
44127;BME280;29786;50.798;7.302;2022-12-18T04:09:12;100320;;;-6.62;100
44127;BME280;29786;50.798;7.302;2022-12-18T04:10:10;100320;;;-6.59;100
44127;BME280;29786;50.798;7.302;2022-12-18T04:11:11;100320;;;-6.58;100
44127;BME280;29786;50.798;7.302;2022-12-18T04:12:11;100320;;;-6.6;100
44127;BME280;29786;50.798;7.302;2022-12-18T04:13:10;100330;;;-6.59;100
44127;BME280;29786;50.798;7.302;2022-12-18T04:14:10;100320;;;-6.65;100
44127;BME280;29786;50.798;7.302;2022-12-18T04:15:12;100330;;;-6.68;100
44127;BME280;29786;50.798;7.302;2022-12-18T04:16:11;100330;;;-6.67;100
44127;BME280;29786;50.798;7.302;2022-12-18T04:17:10;100320;;;-6.58;100
44127;BME280;29786;50.798;7.302;2022-12-18T04:18:11;100320;;;-6.62;100
44127;BME280;29786;50.798;7.302;2022-12-18T04:19:11;100320;;;-6.58;100
44127;BME280;29786;50.798;7.302;2022-12-18T04:20:11;100320;;;-6.64;100
44127;BME280;29786;50.798;7.302;2022-12-18T04:21:11;100320;;;-6.67;100
44127;BME280;29786;50.798;7.302;2022-12-18T04:22:11;100320;;;-6.67;100
44127;BME280;29786;50.798;7.302;2022-12-18T04:23:10;100330;;;-6.72;100
44127;BME280;29786;50.798;7.302;2022-12-18T04:24:11;100320;;;-6.66;100
44127;BME280;29786;50.798;7.302;2022-12-18T04:25:12;100330;;;-6.67;100
44127;BME280;29786;50.798;7.302;2022-12-18T04:26:11;100330;;;-6.63;100
44127;BME280;29786;50.798;7.302;2022-12-18T04:27:11;100320;;;-6.64;100
44127;BME280;29786;50.798;7.302;2022-12-18T04:28:10;100330;;;-6.68;100
44127;BME280;29786;50.798;7.302;2022-12-18T04:29:10;100330;;;-6.69;100
44127;BME280;29786;50.798;7.302;2022-12-18T04:30:12;100330;;;-6.68;100
44127;BME280;29786;50.798;7.302;2022-12-18T04:31:12;100330;;;-6.61;100
44127;BME280;29786;50.798;7.302;2022-12-18T04:32:10;100330;;;-6.56;100
44127;BME280;29786;50.798;7.302;2022-12-18T04:33:12;100330;;;-6.6;100
44127;BME280;29786;50.798;7.302;2022-12-18T04:34:10;100330;;;-6.62;100
44127;BME280;29786;50.798;7.302;2022-12-18T04:35:11;100330;;;-6.68;100
44127;BME280;29786;50.798;7.302;2022-12-18T04:36:11;100330;;;-6.63;100
44127;BME280;29786;50.798;7.302;2022-12-18T04:37:11;100320;;;-6.62;100
44127;BME280;29786;50.798;7.302;2022-12-18T04:38:12;100330;;;-6.71;100
44127;BME280;29786;50.798;7.302;2022-12-18T04:39:11;100330;;;-6.65;100
44127;BME280;29786;50.798;7.302;2022-12-18T04:40:11;100330;;;-6.68;100
44127;BME280;29786;50.798;7.302;2022-12-18T04:41:11;100330;;;-6.72;100
44127;BME280;29786;50.798;7.302;2022-12-18T04:42:10;100330;;;-6.72;100
44127;BME280;29786;50.798;7.302;2022-12-18T04:43:11;100330;;;-6.74;100
44127;BME280;29786;50.798;7.302;2022-12-18T04:44:11;100330;;;-6.76;100
44127;BME280;29786;50.798;7.302;2022-12-18T04:45:11;100330;;;-6.74;100
44127;BME280;29786;50.798;7.302;2022-12-18T04:46:10;100330;;;-6.69;100
44127;BME280;29786;50.798;7.302;2022-12-18T04:47:11;100330;;;-6.69;100
44127;BME280;29786;50.798;7.302;2022-12-18T04:48:11;100330;;;-6.77;100
44127;BME280;29786;50.798;7.302;2022-12-18T04:49:10;100330;;;-6.76;100
44127;BME280;29786;50.798;7.302;2022-12-18T04:50:10;100330;;;-6.73;100
44127;BME280;29786;50.798;7.302;2022-12-18T04:51:11;100330;;;-6.73;100
44127;BME280;29786;50.798;7.302;2022-12-18T04:52:13;100330;;;-6.71;100
44127;BME280;29786;50.798;7.302;2022-12-18T04:53:12;100330;;;-6.78;100
44127;BME280;29786;50.798;7.302;2022-12-18T04:54:10;100330;;;-6.74;100
44127;BME280;29786;50.798;7.302;2022-12-18T04:55:12;100330;;;-6.71;100
44127;BME280;29786;50.798;7.302;2022-12-18T04:56:13;100330;;;-6.74;100
44127;BME280;29786;50.798;7.302;2022-12-18T04:57:11;100330;;;-6.79;100
44127;BME280;29786;50.798;7.302;2022-12-18T04:58:12;100330;;;-6.75;100
44127;BME280;29786;50.798;7.302;2022-12-18T04:59:11;100330;;;-6.75;100
44127;BME280;29786;50.798;7.302;2022-12-18T05:00:11;100330;;;-6.73;100
44127;BME280;29786;50.798;7.302;2022-12-18T05:01:12;100330;;;-6.73;100
44127;BME280;29786;50.798;7.302;2022-12-18T05:02:11;100330;;;-6.74;100
44127;BME280;29786;50.798;7.302;2022-12-18T05:03:11;100320;;;-6.78;100
44127;BME280;29786;50.798;7.302;2022-12-18T05:04:10;100320;;;-6.76;100
44127;BME280;29786;50.798;7.302;2022-12-18T05:05:11;100320;;;-6.72;100
44127;BME280;29786;50.798;7.302;2022-12-18T05:06:11;100320;;;-6.78;100
44127;BME280;29786;50.798;7.302;2022-12-18T05:08:10;100320;;;-6.81;100
44127;BME280;29786;50.798;7.302;2022-12-18T05:09:11;100320;;;-6.84;100
44127;BME280;29786;50.798;7.302;2022-12-18T05:10:11;100320;;;-6.83;100
44127;BME280;29786;50.798;7.302;2022-12-18T05:11:12;100310;;;-6.8;100
44127;BME280;29786;50.798;7.302;2022-12-18T05:12:11;100310;;;-6.8;100
44127;BME280;29786;50.798;7.302;2022-12-18T05:13:11;100310;;;-6.83;100
44127;BME280;29786;50.798;7.302;2022-12-18T05:14:11;100320;;;-6.79;100
44127;BME280;29786;50.798;7.302;2022-12-18T05:15:11;100320;;;-6.72;100
44127;BME280;29786;50.798;7.302;2022-12-18T05:16:11;100310;;;-6.69;100
44127;BME280;29786;50.798;7.302;2022-12-18T05:17:11;100310;;;-6.71;100
44127;BME280;29786;50.798;7.302;2022-12-18T05:18:11;100310;;;-6.77;100
44127;BME280;29786;50.798;7.302;2022-12-18T05:19:11;100320;;;-6.8;100
44127;BME280;29786;50.798;7.302;2022-12-18T05:20:11;100310;;;-6.74;100
44127;BME280;29786;50.798;7.302;2022-12-18T05:21:12;100310;;;-6.72;100
44127;BME280;29786;50.798;7.302;2022-12-18T05:22:12;100310;;;-6.77;100
44127;BME280;29786;50.798;7.302;2022-12-18T05:23:11;100310;;;-6.75;100
44127;BME280;29786;50.798;7.302;2022-12-18T05:24:10;100300;;;-6.73;100
44127;BME280;29786;50.798;7.302;2022-12-18T05:25:11;100300;;;-6.77;100
44127;BME280;29786;50.798;7.302;2022-12-18T05:26:13;100300;;;-6.77;100
44127;BME280;29786;50.798;7.302;2022-12-18T05:27:10;100290;;;-6.78;100
44127;BME280;29786;50.798;7.302;2022-12-18T05:28:10;100300;;;-6.72;100
44127;BME280;29786;50.798;7.302;2022-12-18T05:29:10;100300;;;-6.8;100
44127;BME280;29786;50.798;7.302;2022-12-18T05:30:11;100290;;;-6.81;100
44127;BME280;29786;50.798;7.302;2022-12-18T05:31:11;100300;;;-6.79;100
44127;BME280;29786;50.798;7.302;2022-12-18T05:32:11;100290;;;-6.79;100
44127;BME280;29786;50.798;7.302;2022-12-18T05:33:12;100300;;;-6.83;100
44127;BME280;29786;50.798;7.302;2022-12-18T05:34:10;100300;;;-6.91;100
44127;BME280;29786;50.798;7.302;2022-12-18T05:35:11;100300;;;-6.88;100
44127;BME280;29786;50.798;7.302;2022-12-18T05:36:11;100300;;;-6.89;100
44127;BME280;29786;50.798;7.302;2022-12-18T05:37:11;100300;;;-6.94;100
44127;BME280;29786;50.798;7.302;2022-12-18T05:38:10;100300;;;-6.86;100
44127;BME280;29786;50.798;7.302;2022-12-18T05:39:10;100300;;;-6.87;100